Harrison Township, MI

11:46 PM EDT on September 30, 2016 (GMT -0400)
Selfridge Angb

Weather History for KMTC - September, 2012

Change the Weather History Date:

Monday, September 3, 2012

  Actual Average Record
Temperature  
Mean Temperature 72 °F -  
Max Temperature 84 °F 75 °F 94 °F (1953)
Min Temperature 60 °F 56 °F 45 °F (1987)
Cooling Degree Days 7    
Growing Degree Days 22 (Base 50)    
Moisture  
Dew Point 67 °F    
Average Humidity 72    
Maximum Humidity 93    
Minimum Humidity 62    
Precipitation  
Precipitation 0.00 in - - ()
Sea Level Pressure  
Sea Level Pressure 29.94 in    
Wind  
Wind Speed 5 mph (ESE)    
Max Wind Speed 9 mph    
Max Gust Speed -    
Visibility 4 miles    
Events Rain    
Averages and records for this station are not official NWS values.
T = Trace of Precipitation, MM = Missing Value Source: NWS Daily Summary

Daily Weather History Graph

Daily Weather History Graph

Search for Another Location

Airport or City:

Trip Planner

Search our weather history database for the weather conditions in past years. The results will help you decide how hot, cold, wet, or windy it might be!

Date:

Astronomy

Sep. 03, 2012 Rise Set
Actual Time 6:58 AM EDT 8:01 PM EDT
Civil Twilight 6:30 AM EDT 8:30 PM EDT
Nautical Twilight 5:55 AM EDT 9:04 PM EDT
Astronomical Twilight 5:19 AM EDT 9:40 PM EDT
Moon 9:13 PM EDT (9/3) 10:11 AM EDT (9/3)
Length of Visible Light 14h 00m
Length of Day
13h 02m
Waning Gibbous, 90% of the Moon is Illuminated
Sep 3
Waning Gibbous
Sep 8
Last Quarter
Sep 15
New
Sep 22
First Quarter
Sep 29
Full

Hourly Weather History & Observations

Time (EDT) Temp. Heat Index Dew Point Humidity Pressure Visibility Wind Dir Wind Speed Gust Speed Precip Events Conditions
12:55 AM 65.8 °F - 59.7 °F 81% 30.00 in 10.0 mi NE 3.5 mph - N/A   Clear
1:55 AM 66.0 °F - 59.7 °F 80% 30.00 in 10.0 mi ENE 5.8 mph - N/A   Clear
2:55 AM 62.6 °F - 58.1 °F 85% 29.99 in 9.0 mi NNE 4.6 mph - N/A   Clear
2:58 AM 62.6 °F - 59.0 °F 88% 29.99 in 9.0 mi NNE 4.6 mph - N/A   Clear
3:01 AM 62.6 °F - 59.0 °F 88% 29.99 in 9.0 mi NNE 3.5 mph - N/A   Clear
3:55 AM 63.5 °F - 57.7 °F 81% 29.98 in 10.0 mi ENE 4.6 mph - N/A   Clear
4:55 AM 62.4 °F - 56.3 °F 80% 29.97 in 10.0 mi NE 3.5 mph - N/A   Clear
5:55 AM 62.8 °F - 56.1 °F 79% 29.97 in 10.0 mi ENE 6.9 mph - N/A   Clear
6:20 AM 60.8 °F - 55.4 °F 82% 29.98 in 8.0 mi North 5.8 mph - N/A   Clear
6:42 AM 60.8 °F - 55.4 °F 82% 29.98 in 5.0 mi North 8.1 mph - N/A   Haze
6:55 AM 60.6 °F - 55.6 °F 83% 29.98 in 4.0 mi North 8.1 mph - N/A   Haze
7:41 AM 62.6 °F - 57.2 °F 82% 29.99 in 2.5 mi North 5.8 mph - N/A   Haze
7:42 AM 62.6 °F - 57.2 °F 82% 29.99 in 2.0 mi North 5.8 mph - N/A   Haze
7:43 AM 62.6 °F - 57.2 °F 82% 29.99 in 1.8 mi North 4.6 mph - N/A   Haze
7:44 AM 62.6 °F - 57.2 °F 82% 29.99 in 1.5 mi North 4.6 mph - N/A   Haze
7:45 AM 62.6 °F - 57.2 °F 82% 29.99 in 1.2 mi North 4.6 mph - N/A   Haze
7:46 AM 62.6 °F - 57.2 °F 82% 29.99 in 1.0 mi North 5.8 mph - N/A   Haze
7:48 AM 62.6 °F - 57.2 °F 82% 29.99 in 0.8 mi North 6.9 mph - N/A   Haze
7:49 AM 62.6 °F - 57.2 °F 82% 29.99 in 0.8 mi North 6.9 mph - N/A   Haze
7:55 AM 63.1 °F - 56.5 °F 79% 29.99 in 0.8 mi North 6.9 mph - N/A   Haze
8:15 AM 64.4 °F - 57.2 °F 77% 29.99 in 0.8 mi NNE 5.8 mph - N/A   Haze
8:22 AM 64.4 °F - 57.2 °F 77% 29.99 in 0.8 mi NNE 4.6 mph - N/A   Haze
8:25 AM 64.4 °F - 57.2 °F 77% 29.99 in 1.0 mi NNE 5.8 mph - N/A   Haze
8:28 AM 66.2 °F - 57.2 °F 73% 29.99 in 1.2 mi NNE 5.8 mph - N/A   Haze
8:29 AM 66.2 °F - 57.2 °F 73% 29.99 in 1.8 mi NNE 4.6 mph - N/A   Haze
8:30 AM 66.2 °F - 57.2 °F 73% 29.99 in 2.5 mi NNE 4.6 mph - N/A   Haze
8:31 AM 66.2 °F - 57.2 °F 73% 29.99 in 3.0 mi NE 4.6 mph - N/A   Haze
8:55 AM 67.5 °F - 58.5 °F 73% 29.99 in 7.0 mi NE 5.8 mph - N/A   Clear
9:55 AM 70.9 °F - 62.8 °F 75% 30.00 in 10.0 mi ENE 3.5 mph - N/A   Clear
10:47 AM 73.4 °F - 64.4 °F 73% 29.99 in 10.0 mi ENE 4.6 mph - N/A   Light Drizzle
10:55 AM 73.8 °F - 65.7 °F 76% 29.99 in 10.0 mi NE 5.8 mph - 0.00 in   Light Drizzle
10:57 AM 73.4 °F - 66.2 °F 78% 29.98 in 10.0 mi NE 5.8 mph - N/A   Clear
11:55 AM 76.5 °F - 68.2 °F 75% 29.99 in 10.0 mi East 4.6 mph - 0.00 in   Clear
12:33 PM 78.8 °F - 69.8 °F 74% 29.98 in 8.0 mi ENE 3.5 mph - N/A   Light Drizzle
12:37 PM 78.8 °F - 69.8 °F 74% 29.98 in 10.0 mi Variable 3.5 mph - N/A   Clear
12:55 PM 80.1 °F 83.4 °F 70.5 °F 73% 29.98 in 4.0 mi ENE 4.6 mph - 0.00 in   Haze
1:33 PM 82.4 °F 87.2 °F 71.6 °F 70% 29.96 in 2.5 mi ENE 5.8 mph - N/A   Haze
1:34 PM 82.4 °F 87.2 °F 71.6 °F 70% 29.96 in 3.0 mi ENE 6.9 mph - N/A   Haze
1:55 PM 82.0 °F 86.5 °F 71.4 °F 70% 29.97 in 10.0 mi Calm Calm - N/A   Clear
1:59 PM 82.4 °F 87.2 °F 71.6 °F 70% 29.97 in 10.0 mi Calm Calm - N/A Rain Light Rain
2:18 PM 82.4 °F 87.2 °F 71.6 °F 70% 29.97 in 10.0 mi NE 3.5 mph - N/A   Clear
2:21 PM 82.4 °F 87.2 °F 71.6 °F 70% 29.97 in 10.0 mi ENE 4.6 mph - N/A   Light Drizzle
2:22 PM 82.4 °F 87.2 °F 71.6 °F 70% 29.97 in 10.0 mi ENE 4.6 mph - N/A   Partly Cloudy
2:24 PM 82.4 °F 87.2 °F 71.6 °F 70% 29.97 in 10.0 mi Variable 3.5 mph - N/A   Light Drizzle
2:34 PM 84.2 °F 89.6 °F 71.6 °F 66% 29.96 in 8.0 mi ENE 6.9 mph - N/A   Partly Cloudy
2:35 PM 84.2 °F 89.6 °F 71.6 °F 66% 29.96 in 8.0 mi ENE 5.8 mph - N/A   Light Drizzle
2:46 PM 84.2 °F 89.6 °F 71.6 °F 66% 29.96 in 7.0 mi ENE 5.8 mph - N/A   Partly Cloudy
2:50 PM 82.4 °F 87.2 °F 71.6 °F 70% 29.96 in 6.0 mi Calm Calm - N/A Rain Light Rain
2:55 PM 83.5 °F 88.5 °F 71.6 °F 67% 29.96 in 7.0 mi Variable 3.5 mph - 0.00 in Rain Light Rain
3:00 PM 84.2 °F 89.6 °F 71.6 °F 66% 29.96 in 9.0 mi NE 5.8 mph - N/A   Clear
3:21 PM 84.2 °F 89.6 °F 71.6 °F 66% 29.95 in 6.0 mi Variable 4.6 mph - N/A Rain Light Rain
3:39 PM 84.2 °F 89.6 °F 71.6 °F 66% 29.94 in 10.0 mi East 5.8 mph - N/A   Clear
3:55 PM 84.6 °F 89.7 °F 71.1 °F 64% 29.94 in 10.0 mi SE 4.6 mph - 0.00 in   Clear
4:07 PM 84.2 °F 88.4 °F 69.8 °F 62% 29.93 in 9.0 mi South 6.9 mph - N/A   Light Drizzle
4:12 PM 84.2 °F 89.6 °F 71.6 °F 66% 29.93 in 4.0 mi SSE 9.2 mph - N/A   Haze
4:15 PM 84.2 °F 89.6 °F 71.6 °F 66% 29.93 in 4.0 mi SSE 6.9 mph - N/A   Light Drizzle
4:17 PM 84.2 °F 89.6 °F 71.6 °F 66% 29.93 in 4.0 mi Variable 5.8 mph - N/A   Haze
4:29 PM 84.2 °F 89.6 °F 71.6 °F 66% 29.92 in 2.5 mi Variable 6.9 mph - N/A   Haze
4:30 PM 84.2 °F 89.6 °F 71.6 °F 66% 29.92 in 2.0 mi South 6.9 mph - N/A   Haze
4:31 PM 84.2 °F 89.6 °F 71.6 °F 66% 29.92 in 1.8 mi South 5.8 mph - N/A   Haze
4:32 PM 84.2 °F 89.6 °F 71.6 °F 66% 29.92 in 1.5 mi Variable 6.9 mph - N/A   Haze
4:34 PM 84.2 °F 89.6 °F 71.6 °F 66% 29.92 in 1.2 mi SSE 5.8 mph - N/A   Haze
4:39 PM 84.2 °F 89.6 °F 71.6 °F 66% 29.92 in 1.5 mi SE 6.9 mph - N/A   Haze
4:41 PM 84.2 °F 89.6 °F 71.6 °F 66% 29.92 in 1.8 mi SE 4.6 mph - N/A   Haze
4:42 PM 84.2 °F 89.6 °F 71.6 °F 66% 29.92 in 2.5 mi Variable 4.6 mph - N/A   Haze
4:45 PM 84.2 °F 88.4 °F 69.8 °F 62% 29.92 in 4.0 mi Variable 4.6 mph - N/A   Haze
4:49 PM 84.2 °F 89.6 °F 71.6 °F 66% 29.92 in 2.5 mi South 6.9 mph - N/A   Haze
4:50 PM 84.2 °F 89.6 °F 71.6 °F 66% 29.91 in 2.0 mi South 5.8 mph - N/A   Haze
4:51 PM 84.2 °F 89.6 °F 71.6 °F 66% 29.91 in 1.8 mi South 6.9 mph - N/A   Haze
4:52 PM 84.2 °F 88.4 °F 69.8 °F 62% 29.91 in 1.5 mi South 6.9 mph - N/A   Haze
4:53 PM 84.2 °F 88.4 °F 69.8 °F 62% 29.91 in 1.2 mi South 4.6 mph - N/A   Haze
4:55 PM 84.4 °F 88.7 °F 70.2 °F 62% 29.91 in 1.0 mi South 4.6 mph - 0.00 in   Haze
4:57 PM 84.2 °F 88.4 °F 69.8 °F 62% 29.91 in 1.2 mi SSE 5.8 mph - N/A   Haze
5:00 PM 84.2 °F 88.4 °F 69.8 °F 62% 29.91 in 1.5 mi South 5.8 mph - N/A   Haze
5:02 PM 84.2 °F 88.4 °F 69.8 °F 62% 29.91 in 1.8 mi South 5.8 mph - N/A   Haze
5:03 PM 84.2 °F 88.4 °F 69.8 °F 62% 29.91 in 2.0 mi South 5.8 mph - N/A   Haze
5:04 PM 84.2 °F 89.6 °F 71.6 °F 66% 29.91 in 2.5 mi SSE 5.8 mph - N/A   Haze
5:13 PM 84.2 °F 89.6 °F 71.6 °F 66% 29.91 in 3.0 mi South 6.9 mph - N/A   Haze
5:14 PM 84.2 °F 89.6 °F 71.6 °F 66% 29.91 in 2.5 mi South 8.1 mph - N/A   Haze
5:17 PM 84.2 °F 89.6 °F 71.6 °F 66% 29.91 in 2.0 mi South 8.1 mph - N/A   Haze
5:18 PM 84.2 °F 89.6 °F 71.6 °F 66% 29.91 in 1.8 mi South 6.9 mph - N/A   Haze
5:20 PM 84.2 °F 89.6 °F 71.6 °F 66% 29.91 in 1.5 mi South 6.9 mph - N/A   Haze
5:24 PM 84.2 °F 89.6 °F 71.6 °F 66% 29.91 in 1.8 mi South 6.9 mph - N/A   Haze
5:29 PM 84.2 °F 89.6 °F 71.6 °F 66% 29.91 in 2.0 mi South 5.8 mph - N/A   Haze
5:36 PM 84.2 °F 89.6 °F 71.6 °F 66% 29.90 in 2.5 mi SSE 4.6 mph - N/A   Haze
5:38 PM 84.2 °F 88.4 °F 69.8 °F 62% 29.90 in 3.0 mi SE 5.8 mph - N/A   Haze
5:55 PM 83.8 °F 88.1 °F 70.0 °F 63% 29.90 in 4.0 mi SSE 6.9 mph - N/A   Haze
5:58 PM 84.2 °F 88.4 °F 69.8 °F 62% 29.90 in 2.5 mi South 8.1 mph - N/A   Haze
6:12 PM 84.2 °F 88.4 °F 69.8 °F 62% 29.90 in 3.0 mi SE 6.9 mph - N/A   Haze
6:33 PM 82.4 °F 86.3 °F 69.8 °F 66% 29.90 in 2.5 mi South 5.8 mph - N/A   Haze
6:34 PM 82.4 °F 86.3 °F 69.8 °F 66% 29.90 in 2.0 mi South 5.8 mph - N/A   Haze
6:36 PM 82.4 °F 86.3 °F 69.8 °F 66% 29.90 in 1.8 mi SSE 4.6 mph - N/A   Haze
6:40 PM 82.4 °F 86.3 °F 69.8 °F 66% 29.90 in 2.0 mi South 6.9 mph - N/A   Haze
6:42 PM 82.4 °F 86.3 °F 69.8 °F 66% 29.90 in 2.5 mi South 6.9 mph - N/A   Haze
6:45 PM 82.4 °F 86.3 °F 69.8 °F 66% 29.90 in 3.0 mi South 4.6 mph - N/A   Haze
6:55 PM 82.2 °F 86.2 °F 70.3 °F 67% 29.90 in 3.0 mi South 5.8 mph - N/A   Haze
7:55 PM 79.9 °F - 69.3 °F 70% 29.91 in 5.0 mi Calm Calm - N/A   Haze
8:12 PM 78.8 °F - 69.8 °F 74% 29.92 in 2.5 mi Calm Calm - N/A   Haze
8:14 PM 78.8 °F - 69.8 °F 74% 29.92 in 2.0 mi Calm Calm - N/A   Haze
8:15 PM 78.8 °F - 69.8 °F 74% 29.92 in 1.8 mi Calm Calm - N/A   Haze
8:16 PM 78.8 °F - 69.8 °F 74% 29.92 in 1.5 mi Calm Calm - N/A   Haze
8:17 PM 78.8 °F - 69.8 °F 74% 29.92 in 1.2 mi Calm Calm - N/A   Haze
8:18 PM 78.8 °F - 69.8 °F 74% 29.92 in 1.0 mi Calm Calm - N/A   Haze
8:24 PM 78.8 °F - 69.8 °F 74% 29.92 in 1.0 mi Calm Calm - N/A   Haze
8:25 PM 78.8 °F - 69.8 °F 74% 29.92 in 1.0 mi Calm Calm - N/A   Haze
8:26 PM 78.8 °F - 69.8 °F 74% 29.92 in 1.2 mi Calm Calm - N/A   Haze
8:27 PM 78.8 °F - 69.8 °F 74% 29.92 in 1.5 mi Calm Calm - N/A   Haze
8:28 PM 78.8 °F - 69.8 °F 74% 29.93 in 2.0 mi Calm Calm - N/A   Haze
8:30 PM 78.8 °F - 69.8 °F 74% 29.93 in 2.5 mi Calm Calm - N/A   Haze
8:31 PM 78.8 °F - 69.8 °F 74% 29.93 in 3.0 mi Calm Calm - N/A   Haze
8:32 PM 77.0 °F - 69.8 °F 78% 29.93 in 4.0 mi Calm Calm - N/A   Haze
8:55 PM 76.3 °F - 68.5 °F 77% 29.92 in 10.0 mi SE 3.5 mph - N/A   Clear
9:10 PM 77.0 °F - 69.8 °F 78% 29.93 in 7.0 mi SSE 3.5 mph - N/A   Clear
9:12 PM 77.0 °F - 69.8 °F 78% 29.93 in 7.0 mi SSE 4.6 mph - N/A   Clear
9:55 PM 75.7 °F - 71.2 °F 86% 29.94 in 10.0 mi South 9.2 mph - N/A   Clear
11:55 PM 73.0 °F - 70.9 °F 93% 29.94 in 9.0 mi Calm Calm - N/A   Clear